»·PEaware :: N826BR KSLC-KBOI

N826BR :: KSLC-KBOI

FLIGHT INFORMATION

Flight Status: Arrived
Operator: Privately registered:
United States
More flights under this callsign
Pilot: Chris C. (17882)
Aircraft: BOMBARDIER BD-100 CHALLENGER 300
(CL30)
More flights by this aircraft type
Origin: KSLC Salt Lake City Intl
United States
Destination: KBOI Boise Air Terminal/Gowen
United States
More flights between these airports :: More routes between these airports
Route: +CGULL1 TWF BROPH SPUUD3
File this flight plan on PilotEdge
Remarks: RMK / SIMBRIEF
Altitude:
(Current/Filed)
32,000ft
Speed:
(Current/Filed)
468kts
Departed: 24-Mar-20 01:35 PM
Arrived: 24-Mar-20 02:23 PM
Distance/Time
Traveled:
252nm/0:48
Distance/Time
To Go:
Arrived

Flight Plot

Page will automatically refresh every two minutes.


Map Options




Map Legend


Flown Route
Filed Route
Departure Airport
Arrival Airport
Navaid (VOR, NDB)
Fix

Horizontal Profiles

Position Reports

Time Latitude Longitude Heading Altitude Ground
Speed
24-Mar-20 13:11 40.775648 -111.958739 358 4226ft 0kts
24-Mar-20 13:12 40.775648 -111.958739 358 4226ft 0kts
24-Mar-20 13:13 40.775648 -111.958739 358 4226ft 0kts
24-Mar-20 13:14 40.775648 -111.958739 358 4226ft 0kts
24-Mar-20 13:15 40.775648 -111.958739 358 4226ft 0kts
24-Mar-20 13:16 40.775648 -111.958739 358 4226ft 0kts
24-Mar-20 13:17 40.775648 -111.958739 358 4226ft 0kts
24-Mar-20 13:18 40.775648 -111.958739 358 4226ft 0kts
24-Mar-20 13:19 40.775648 -111.958739 358 4226ft 0kts
24-Mar-20 13:20 40.775648 -111.958739 358 4226ft 0kts
24-Mar-20 13:21 40.775648 -111.958739 358 4226ft 0kts
24-Mar-20 13:22 40.775648 -111.958739 358 4226ft 0kts
24-Mar-20 13:23 40.775648 -111.958739 358 4226ft 0kts
24-Mar-20 13:24 40.775648 -111.958739 358 4226ft 0kts
24-Mar-20 13:25 40.775648 -111.958739 358 4226ft 0kts
24-Mar-20 13:26 40.775648 -111.958739 358 4226ft 0kts
24-Mar-20 13:27 40.775734 -111.958741 359 4226ft 2kts
24-Mar-20 13:28 40.776139 -111.959292 267 4226ft 0kts
24-Mar-20 13:29 40.778136 -111.960611 14 4226ft 13kts
24-Mar-20 13:30 40.782518 -111.960011 0 4224ft 15kts
24-Mar-20 13:31 40.788404 -111.960045 358 4222ft 25kts
24-Mar-20 13:32 40.794069 -111.960036 0 4221ft 18kts
24-Mar-20 13:33 40.798805 -111.960246 306 4222ft 8kts
24-Mar-20 13:34 40.796730 -111.962043 180 4222ft 61kts
24-Mar-20 13:35 40.768622 -111.987454 270 7486ft 194kts
24-Mar-20 13:36 40.808014 -112.059732 306 10377ft 308kts
24-Mar-20 13:37 40.858286 -112.142476 306 10337ft 274kts
24-Mar-20 13:38 40.911490 -112.218641 310 10595ft 350kts
24-Mar-20 13:39 40.982421 -112.311500 309 16687ft 355kts
24-Mar-20 13:40 41.050785 -112.400977 307 19696ft 349kts
24-Mar-20 13:41 41.131159 -112.477283 318 22860ft 394kts
24-Mar-20 13:42 41.222987 -112.562246 313 22994ft 376kts
24-Mar-20 13:43 41.297836 -112.646726 302 23566ft 348kts
24-Mar-20 13:44 41.361637 -112.741574 301 27285ft 350kts
24-Mar-20 13:45 41.427167 -112.839593 300 30141ft 360kts
24-Mar-20 13:46 41.494090 -112.942069 299 32026ft 384kts
24-Mar-20 13:47 41.568925 -113.056995 300 32029ft 424kts
24-Mar-20 13:48 41.643838 -113.172320 300 32016ft 409kts
24-Mar-20 13:49 41.718481 -113.287815 300 32007ft 410kts
24-Mar-20 13:50 41.792789 -113.403230 300 32004ft 409kts
24-Mar-20 13:51 41.866853 -113.518717 300 32002ft 409kts
24-Mar-20 13:52 41.941059 -113.634868 300 31992ft 409kts
24-Mar-20 13:54 42.014907 -113.750902 299 32010ft 409kts
24-Mar-20 13:55 42.088817 -113.867494 299 32007ft 409kts
24-Mar-20 13:56 42.162629 -113.984403 299 31997ft 409kts
24-Mar-20 13:57 42.236372 -114.101072 299 32002ft 409kts
24-Mar-20 13:58 42.309933 -114.217877 299 32010ft 409kts
24-Mar-20 13:59 42.383502 -114.335149 299 32011ft 410kts
24-Mar-20 14:00 42.457432 -114.453480 299 31945ft 416kts
24-Mar-20 14:01 42.530001 -114.569287 300 28714ft 397kts
24-Mar-20 14:02 42.600389 -114.681783 300 26669ft 393kts
24-Mar-20 14:03 42.670014 -114.793325 300 25072ft 366kts
24-Mar-20 14:04 42.731381 -114.890042 303 23728ft 336kts
24-Mar-20 14:05 42.796342 -114.983441 304 22228ft 342kts
24-Mar-20 14:06 42.862349 -115.078415 304 20691ft 344kts
24-Mar-20 14:07 42.927843 -115.173029 306 19169ft 342kts
24-Mar-20 14:08 42.992459 -115.266849 308 17663ft 335kts
24-Mar-20 14:09 43.055460 -115.358458 307 16192ft 327kts
24-Mar-20 14:10 43.116987 -115.448406 308 14742ft 319kts
24-Mar-20 14:11 43.176337 -115.535242 308 13348ft 303kts
24-Mar-20 14:12 43.232107 -115.616994 309 12065ft 286kts
24-Mar-20 14:13 43.286344 -115.694165 312 10825ft 274kts
24-Mar-20 14:13 43.331156 -115.751804 313 9842ft 251kts
24-Mar-20 14:15 43.388008 -115.828791 303 8596ft 248kts
24-Mar-20 14:16 43.425866 -115.902913 303 7013ft 245kts
24-Mar-20 14:16 43.456613 -115.964221 303 7010ft 227kts
24-Mar-20 14:17 43.488614 -116.027253 303 7006ft 177kts
24-Mar-20 14:19 43.518827 -116.087390 297 5073ft 149kts
24-Mar-20 14:19 43.532933 -116.128289 296 3853ft 150kts
24-Mar-20 14:20 43.549137 -116.175530 295 3300ft 129kts
24-Mar-20 14:21 43.563182 -116.216356 295 2855ft 86kts
24-Mar-20 14:22 43.566566 -116.224074 6 2848ft 16kts
24-Mar-20 14:23 43.568464 -116.228255 302 2841ft 17kts
24-Mar-20 14:24 43.570283 -116.228891 273 2840ft 0kts
24-Mar-20 14:25 43.570283 -116.228891 273 2840ft 0kts

Navigation Log

Ident Type
Flight plan parsing failed, navigation log unavailable